sensor_id;sensor_type;location;lat;lon;timestamp;P1;durP1;ratioP1;P2;durP2;ratioP2
57826;SDS011;43656;57.746;11.780;2024-01-30T00:00:35;151.70;;;17.55;;
57826;SDS011;43656;57.746;11.780;2024-01-30T00:03:00;208.38;;;19.50;;
57826;SDS011;43656;57.746;11.780;2024-01-30T00:05:27;171.88;;;18.58;;
57826;SDS011;43656;57.746;11.780;2024-01-30T00:07:52;175.30;;;19.13;;
57826;SDS011;43656;57.746;11.780;2024-01-30T00:10:18;170.57;;;19.27;;
57826;SDS011;43656;57.746;11.780;2024-01-30T00:12:43;129.32;;;18.00;;
57826;SDS011;43656;57.746;11.780;2024-01-30T00:15:09;131.00;;;18.88;;
57826;SDS011;43656;57.746;11.780;2024-01-30T00:17:35;96.40;;;17.15;;
57826;SDS011;43656;57.746;11.780;2024-01-30T00:20:02;126.13;;;19.13;;
57826;SDS011;43656;57.746;11.780;2024-01-30T00:22:30;152.98;;;19.85;;
57826;SDS011;43656;57.746;11.780;2024-01-30T00:24:58;112.35;;;18.15;;
57826;SDS011;43656;57.746;11.780;2024-01-30T00:27:24;161.40;;;19.60;;
57826;SDS011;43656;57.746;11.780;2024-01-30T00:29:49;117.22;;;18.05;;
57826;SDS011;43656;57.746;11.780;2024-01-30T00:32:14;96.13;;;17.65;;
57826;SDS011;43656;57.746;11.780;2024-01-30T00:34:41;189.73;;;21.98;;
57826;SDS011;43656;57.746;11.780;2024-01-30T00:37:06;161.02;;;20.42;;
57826;SDS011;43656;57.746;11.780;2024-01-30T00:39:32;185.43;;;20.48;;
57826;SDS011;43656;57.746;11.780;2024-01-30T00:41:57;276.48;;;22.80;;
57826;SDS011;43656;57.746;11.780;2024-01-30T00:44:23;205.45;;;19.92;;
57826;SDS011;43656;57.746;11.780;2024-01-30T00:46:48;117.30;;;18.63;;
57826;SDS011;43656;57.746;11.780;2024-01-30T00:49:14;97.45;;;17.70;;
57826;SDS011;43656;57.746;11.780;2024-01-30T00:51:39;224.00;;;22.08;;
57826;SDS011;43656;57.746;11.780;2024-01-30T00:54:04;321.52;;;23.90;;
57826;SDS011;43656;57.746;11.780;2024-01-30T00:56:31;281.10;;;25.60;;
57826;SDS011;43656;57.746;11.780;2024-01-30T00:58:56;125.00;;;20.90;;
57826;SDS011;43656;57.746;11.780;2024-01-30T01:01:22;152.90;;;20.70;;
57826;SDS011;43656;57.746;11.780;2024-01-30T01:03:47;191.23;;;23.85;;
57826;SDS011;43656;57.746;11.780;2024-01-30T01:06:13;283.40;;;28.05;;
57826;SDS011;43656;57.746;11.780;2024-01-30T01:08:39;131.55;;;23.92;;
57826;SDS011;43656;57.746;11.780;2024-01-30T01:11:04;156.88;;;26.13;;
57826;SDS011;43656;57.746;11.780;2024-01-30T01:13:30;165.32;;;26.08;;
57826;SDS011;43656;57.746;11.780;2024-01-30T01:15:55;129.77;;;25.05;;
57826;SDS011;43656;57.746;11.780;2024-01-30T01:18:20;133.90;;;25.38;;
57826;SDS011;43656;57.746;11.780;2024-01-30T01:20:46;178.15;;;28.65;;
57826;SDS011;43656;57.746;11.780;2024-01-30T01:23:11;173.45;;;28.95;;
57826;SDS011;43656;57.746;11.780;2024-01-30T01:25:37;159.60;;;28.02;;
57826;SDS011;43656;57.746;11.780;2024-01-30T01:28:02;169.10;;;29.60;;
57826;SDS011;43656;57.746;11.780;2024-01-30T01:30:28;165.63;;;29.15;;
57826;SDS011;43656;57.746;11.780;2024-01-30T01:32:54;161.07;;;29.55;;
57826;SDS011;43656;57.746;11.780;2024-01-30T01:35:26;181.35;;;29.02;;
57826;SDS011;43656;57.746;11.780;2024-01-30T01:37:52;171.85;;;28.70;;
57826;SDS011;43656;57.746;11.780;2024-01-30T01:40:24;183.70;;;30.83;;
57826;SDS011;43656;57.746;11.780;2024-01-30T01:42:50;163.55;;;30.40;;
57826;SDS011;43656;57.746;11.780;2024-01-30T01:45:19;173.15;;;30.58;;
57826;SDS011;43656;57.746;11.780;2024-01-30T01:47:46;166.82;;;31.08;;
57826;SDS011;43656;57.746;11.780;2024-01-30T01:50:15;160.38;;;30.08;;
57826;SDS011;43656;57.746;11.780;2024-01-30T01:52:45;191.27;;;31.75;;
57826;SDS011;43656;57.746;11.780;2024-01-30T01:55:14;196.10;;;31.38;;
57826;SDS011;43656;57.746;11.780;2024-01-30T01:57:41;161.05;;;31.15;;
57826;SDS011;43656;57.746;11.780;2024-01-30T02:00:07;166.07;;;29.75;;
57826;SDS011;43656;57.746;11.780;2024-01-30T02:02:35;167.68;;;30.73;;
57826;SDS011;43656;57.746;11.780;2024-01-30T02:05:02;196.60;;;31.65;;
57826;SDS011;43656;57.746;11.780;2024-01-30T02:07:28;176.52;;;31.92;;
57826;SDS011;43656;57.746;11.780;2024-01-30T02:09:55;156.70;;;30.42;;
57826;SDS011;43656;57.746;11.780;2024-01-30T02:12:20;165.65;;;29.80;;
57826;SDS011;43656;57.746;11.780;2024-01-30T02:14:46;157.27;;;29.73;;
57826;SDS011;43656;57.746;11.780;2024-01-30T02:17:12;147.90;;;28.92;;
57826;SDS011;43656;57.746;11.780;2024-01-30T02:19:38;134.88;;;27.67;;
57826;SDS011;43656;57.746;11.780;2024-01-30T02:22:06;140.68;;;29.05;;
57826;SDS011;43656;57.746;11.780;2024-01-30T02:24:32;145.15;;;30.23;;
57826;SDS011;43656;57.746;11.780;2024-01-30T02:27:00;135.98;;;28.48;;
57826;SDS011;43656;57.746;11.780;2024-01-30T02:29:25;126.43;;;28.48;;
57826;SDS011;43656;57.746;11.780;2024-01-30T02:31:50;127.88;;;27.38;;
57826;SDS011;43656;57.746;11.780;2024-01-30T02:34:16;109.93;;;28.33;;
57826;SDS011;43656;57.746;11.780;2024-01-30T02:36:44;115.35;;;28.13;;
57826;SDS011;43656;57.746;11.780;2024-01-30T02:39:11;106.63;;;27.15;;
57826;SDS011;43656;57.746;11.780;2024-01-30T02:41:36;93.47;;;26.58;;
57826;SDS011;43656;57.746;11.780;2024-01-30T02:44:02;107.60;;;27.92;;
57826;SDS011;43656;57.746;11.780;2024-01-30T02:46:28;112.22;;;28.17;;
57826;SDS011;43656;57.746;11.780;2024-01-30T02:48:55;106.47;;;26.60;;
57826;SDS011;43656;57.746;11.780;2024-01-30T02:51:21;107.55;;;28.65;;
57826;SDS011;43656;57.746;11.780;2024-01-30T02:53:46;107.18;;;28.23;;
57826;SDS011;43656;57.746;11.780;2024-01-30T02:56:11;96.72;;;27.55;;
57826;SDS011;43656;57.746;11.780;2024-01-30T02:58:38;97.65;;;26.50;;
57826;SDS011;43656;57.746;11.780;2024-01-30T03:01:05;96.85;;;26.92;;
57826;SDS011;43656;57.746;11.780;2024-01-30T03:03:31;96.68;;;26.15;;
57826;SDS011;43656;57.746;11.780;2024-01-30T03:05:56;101.68;;;26.58;;
57826;SDS011;43656;57.746;11.780;2024-01-30T03:08:21;103.13;;;27.20;;
57826;SDS011;43656;57.746;11.780;2024-01-30T03:10:47;108.32;;;27.13;;
57826;SDS011;43656;57.746;11.780;2024-01-30T03:13:14;103.57;;;26.75;;
57826;SDS011;43656;57.746;11.780;2024-01-30T03:15:40;92.65;;;25.58;;
57826;SDS011;43656;57.746;11.780;2024-01-30T03:18:05;112.57;;;28.15;;
57826;SDS011;43656;57.746;11.780;2024-01-30T03:20:31;109.53;;;29.08;;
57826;SDS011;43656;57.746;11.780;2024-01-30T03:22:56;91.60;;;27.00;;
57826;SDS011;43656;57.746;11.780;2024-01-30T03:25:22;114.10;;;29.75;;
57826;SDS011;43656;57.746;11.780;2024-01-30T03:27:49;86.55;;;27.70;;
57826;SDS011;43656;57.746;11.780;2024-01-30T03:30:14;99.95;;;29.55;;
57826;SDS011;43656;57.746;11.780;2024-01-30T03:32:39;96.18;;;29.55;;
57826;SDS011;43656;57.746;11.780;2024-01-30T03:35:05;75.55;;;27.48;;
57826;SDS011;43656;57.746;11.780;2024-01-30T03:37:31;89.90;;;29.52;;
57826;SDS011;43656;57.746;11.780;2024-01-30T03:39:56;78.28;;;27.77;;
57826;SDS011;43656;57.746;11.780;2024-01-30T03:42:22;111.35;;;30.67;;
57826;SDS011;43656;57.746;11.780;2024-01-30T03:44:48;88.65;;;28.98;;
57826;SDS011;43656;57.746;11.780;2024-01-30T03:47:16;110.55;;;31.17;;
57826;SDS011;43656;57.746;11.780;2024-01-30T03:49:42;104.35;;;30.70;;
57826;SDS011;43656;57.746;11.780;2024-01-30T03:52:07;96.93;;;28.50;;
57826;SDS011;43656;57.746;11.780;2024-01-30T03:54:33;93.25;;;28.30;;
57826;SDS011;43656;57.746;11.780;2024-01-30T03:56:58;83.00;;;25.45;;
57826;SDS011;43656;57.746;11.780;2024-01-30T03:59:23;88.90;;;27.38;;
57826;SDS011;43656;57.746;11.780;2024-01-30T04:01:49;91.75;;;26.88;;
57826;SDS011;43656;57.746;11.780;2024-01-30T04:04:16;80.35;;;26.55;;
57826;SDS011;43656;57.746;11.780;2024-01-30T04:06:42;81.75;;;25.13;;
57826;SDS011;43656;57.746;11.780;2024-01-30T04:09:08;78.50;;;24.85;;
57826;SDS011;43656;57.746;11.780;2024-01-30T04:11:33;84.80;;;24.30;;
57826;SDS011;43656;57.746;11.780;2024-01-30T04:13:58;88.25;;;24.67;;
57826;SDS011;43656;57.746;11.780;2024-01-30T04:16:24;93.18;;;26.10;;
57826;SDS011;43656;57.746;11.780;2024-01-30T04:18:51;91.38;;;24.35;;
57826;SDS011;43656;57.746;11.780;2024-01-30T04:21:16;73.93;;;23.42;;
57826;SDS011;43656;57.746;11.780;2024-01-30T04:23:42;90.03;;;24.17;;
57826;SDS011;43656;57.746;11.780;2024-01-30T04:26:07;79.68;;;23.73;;
57826;SDS011;43656;57.746;11.780;2024-01-30T04:28:33;73.30;;;22.15;;
57826;SDS011;43656;57.746;11.780;2024-01-30T04:30:58;80.32;;;22.40;;
57826;SDS011;43656;57.746;11.780;2024-01-30T04:33:24;77.00;;;22.13;;
57826;SDS011;43656;57.746;11.780;2024-01-30T04:35:50;76.72;;;20.88;;
57826;SDS011;43656;57.746;11.780;2024-01-30T04:38:15;77.25;;;20.73;;
57826;SDS011;43656;57.746;11.780;2024-01-30T04:40:40;73.85;;;20.42;;
57826;SDS011;43656;57.746;11.780;2024-01-30T04:43:06;76.13;;;20.02;;
57826;SDS011;43656;57.746;11.780;2024-01-30T04:45:31;63.47;;;17.27;;
57826;SDS011;43656;57.746;11.780;2024-01-30T04:47:58;67.40;;;18.05;;
57826;SDS011;43656;57.746;11.780;2024-01-30T04:50:23;64.10;;;17.67;;
57826;SDS011;43656;57.746;11.780;2024-01-30T04:52:49;64.68;;;17.30;;
57826;SDS011;43656;57.746;11.780;2024-01-30T04:55:17;72.40;;;18.15;;
57826;SDS011;43656;57.746;11.780;2024-01-30T04:57:42;72.30;;;16.88;;
57826;SDS011;43656;57.746;11.780;2024-01-30T05:00:08;73.60;;;17.88;;
57826;SDS011;43656;57.746;11.780;2024-01-30T05:02:35;66.05;;;17.20;;
57826;SDS011;43656;57.746;11.780;2024-01-30T05:05:00;66.82;;;17.55;;
57826;SDS011;43656;57.746;11.780;2024-01-30T05:07:26;60.58;;;16.85;;
57826;SDS011;43656;57.746;11.780;2024-01-30T05:09:52;64.97;;;17.98;;
57826;SDS011;43656;57.746;11.780;2024-01-30T05:12:19;56.60;;;16.95;;
57826;SDS011;43656;57.746;11.780;2024-01-30T05:14:44;61.67;;;17.10;;
57826;SDS011;43656;57.746;11.780;2024-01-30T05:17:10;61.67;;;17.27;;
57826;SDS011;43656;57.746;11.780;2024-01-30T05:19:37;62.08;;;17.52;;
57826;SDS011;43656;57.746;11.780;2024-01-30T05:22:04;61.42;;;17.50;;
57826;SDS011;43656;57.746;11.780;2024-01-30T05:24:29;57.53;;;19.27;;
57826;SDS011;43656;57.746;11.780;2024-01-30T05:26:55;61.75;;;18.42;;
57826;SDS011;43656;57.746;11.780;2024-01-30T05:29:20;58.72;;;17.48;;
57826;SDS011;43656;57.746;11.780;2024-01-30T05:31:46;52.80;;;18.33;;
57826;SDS011;43656;57.746;11.780;2024-01-30T05:34:12;58.50;;;19.17;;
57826;SDS011;43656;57.746;11.780;2024-01-30T05:36:38;58.08;;;19.27;;
57826;SDS011;43656;57.746;11.780;2024-01-30T05:39:03;51.83;;;18.80;;
57826;SDS011;43656;57.746;11.780;2024-01-30T05:41:29;50.75;;;18.73;;
57826;SDS011;43656;57.746;11.780;2024-01-30T05:43:54;52.53;;;18.88;;
57826;SDS011;43656;57.746;11.780;2024-01-30T05:46:20;49.42;;;18.40;;
57826;SDS011;43656;57.746;11.780;2024-01-30T05:48:45;58.25;;;18.67;;
57826;SDS011;43656;57.746;11.780;2024-01-30T05:51:12;53.47;;;18.60;;
57826;SDS011;43656;57.746;11.780;2024-01-30T05:53:37;53.33;;;17.95;;
57826;SDS011;43656;57.746;11.780;2024-01-30T05:56:03;57.00;;;19.10;;
57826;SDS011;43656;57.746;11.780;2024-01-30T05:58:29;60.70;;;19.38;;
57826;SDS011;43656;57.746;11.780;2024-01-30T06:00:56;58.65;;;18.98;;
57826;SDS011;43656;57.746;11.780;2024-01-30T06:03:21;69.22;;;20.77;;
57826;SDS011;43656;57.746;11.780;2024-01-30T06:05:46;61.53;;;20.73;;
57826;SDS011;43656;57.746;11.780;2024-01-30T06:08:12;64.10;;;20.92;;
57826;SDS011;43656;57.746;11.780;2024-01-30T06:10:37;74.28;;;21.27;;
57826;SDS011;43656;57.746;11.780;2024-01-30T06:13:03;68.38;;;21.10;;
57826;SDS011;43656;57.746;11.780;2024-01-30T06:15:28;62.40;;;20.73;;
57826;SDS011;43656;57.746;11.780;2024-01-30T06:17:57;65.53;;;21.17;;
57826;SDS011;43656;57.746;11.780;2024-01-30T06:20:23;62.95;;;21.40;;
57826;SDS011;43656;57.746;11.780;2024-01-30T06:22:49;69.38;;;22.40;;
57826;SDS011;43656;57.746;11.780;2024-01-30T06:25:14;62.92;;;21.25;;
57826;SDS011;43656;57.746;11.780;2024-01-30T06:27:41;60.85;;;20.98;;
57826;SDS011;43656;57.746;11.780;2024-01-30T06:30:07;62.15;;;21.30;;
57826;SDS011;43656;57.746;11.780;2024-01-30T06:32:32;63.72;;;19.95;;
57826;SDS011;43656;57.746;11.780;2024-01-30T06:34:59;57.50;;;19.13;;
57826;SDS011;43656;57.746;11.780;2024-01-30T06:37:25;62.83;;;20.25;;
57826;SDS011;43656;57.746;11.780;2024-01-30T06:39:50;56.03;;;18.77;;
57826;SDS011;43656;57.746;11.780;2024-01-30T06:42:17;63.47;;;19.23;;
57826;SDS011;43656;57.746;11.780;2024-01-30T06:44:43;54.38;;;18.38;;
57826;SDS011;43656;57.746;11.780;2024-01-30T06:47:08;58.85;;;18.70;;
57826;SDS011;43656;57.746;11.780;2024-01-30T06:49:34;49.80;;;18.30;;
57826;SDS011;43656;57.746;11.780;2024-01-30T06:52:03;57.35;;;19.48;;
57826;SDS011;43656;57.746;11.780;2024-01-30T06:54:31;61.75;;;20.10;;
57826;SDS011;43656;57.746;11.780;2024-01-30T06:56:57;63.95;;;19.70;;
57826;SDS011;43656;57.746;11.780;2024-01-30T06:59:23;64.22;;;20.08;;
57826;SDS011;43656;57.746;11.780;2024-01-30T07:01:48;67.88;;;19.42;;
57826;SDS011;43656;57.746;11.780;2024-01-30T07:04:14;68.50;;;20.00;;
57826;SDS011;43656;57.746;11.780;2024-01-30T07:06:39;64.88;;;20.27;;
57826;SDS011;43656;57.746;11.780;2024-01-30T07:09:04;70.35;;;20.23;;
57826;SDS011;43656;57.746;11.780;2024-01-30T07:11:31;64.32;;;20.08;;
57826;SDS011;43656;57.746;11.780;2024-01-30T07:13:57;52.97;;;18.60;;
57826;SDS011;43656;57.746;11.780;2024-01-30T07:16:22;52.25;;;17.00;;
57826;SDS011;43656;57.746;11.780;2024-01-30T07:18:48;57.72;;;18.88;;
57826;SDS011;43656;57.746;11.780;2024-01-30T07:21:14;53.30;;;18.92;;
57826;SDS011;43656;57.746;11.780;2024-01-30T07:23:40;55.63;;;18.58;;
57826;SDS011;43656;57.746;11.780;2024-01-30T07:26:06;57.55;;;19.67;;
57826;SDS011;43656;57.746;11.780;2024-01-30T07:28:31;52.00;;;18.17;;
57826;SDS011;43656;57.746;11.780;2024-01-30T07:30:57;56.55;;;18.75;;
57826;SDS011;43656;57.746;11.780;2024-01-30T07:33:23;58.75;;;19.95;;
57826;SDS011;43656;57.746;11.780;2024-01-30T07:35:48;56.00;;;18.80;;
57826;SDS011;43656;57.746;11.780;2024-01-30T07:38:14;65.60;;;19.95;;
57826;SDS011;43656;57.746;11.780;2024-01-30T07:40:39;55.35;;;19.20;;
57826;SDS011;43656;57.746;11.780;2024-01-30T07:43:04;49.58;;;17.92;;
57826;SDS011;43656;57.746;11.780;2024-01-30T07:45:30;46.17;;;16.73;;
57826;SDS011;43656;57.746;11.780;2024-01-30T07:47:58;42.85;;;16.38;;
57826;SDS011;43656;57.746;11.780;2024-01-30T07:50:27;48.05;;;17.85;;
57826;SDS011;43656;57.746;11.780;2024-01-30T07:52:52;38.60;;;16.20;;
57826;SDS011;43656;57.746;11.780;2024-01-30T07:55:23;43.60;;;16.55;;
57826;SDS011;43656;57.746;11.780;2024-01-30T07:57:54;38.72;;;16.95;;
57826;SDS011;43656;57.746;11.780;2024-01-30T08:00:20;45.08;;;17.15;;
57826;SDS011;43656;57.746;11.780;2024-01-30T08:02:46;48.55;;;18.52;;
57826;SDS011;43656;57.746;11.780;2024-01-30T08:05:12;49.15;;;19.08;;
57826;SDS011;43656;57.746;11.780;2024-01-30T08:07:40;57.58;;;20.67;;
57826;SDS011;43656;57.746;11.780;2024-01-30T08:10:08;45.40;;;17.90;;
57826;SDS011;43656;57.746;11.780;2024-01-30T08:12:35;51.10;;;18.90;;
57826;SDS011;43656;57.746;11.780;2024-01-30T08:15:00;38.90;;;17.70;;
57826;SDS011;43656;57.746;11.780;2024-01-30T08:17:26;36.40;;;16.98;;
57826;SDS011;43656;57.746;11.780;2024-01-30T08:19:51;39.35;;;17.42;;
57826;SDS011;43656;57.746;11.780;2024-01-30T08:22:16;41.90;;;17.73;;
57826;SDS011;43656;57.746;11.780;2024-01-30T08:24:42;43.53;;;16.80;;
57826;SDS011;43656;57.746;11.780;2024-01-30T08:27:08;44.30;;;17.02;;
57826;SDS011;43656;57.746;11.780;2024-01-30T08:29:37;39.17;;;16.65;;
57826;SDS011;43656;57.746;11.780;2024-01-30T08:32:03;30.15;;;15.15;;
57826;SDS011;43656;57.746;11.780;2024-01-30T08:34:31;31.70;;;14.90;;
57826;SDS011;43656;57.746;11.780;2024-01-30T08:37:00;33.85;;;15.13;;
57826;SDS011;43656;57.746;11.780;2024-01-30T08:39:25;32.13;;;15.45;;
57826;SDS011;43656;57.746;11.780;2024-01-30T08:41:52;39.40;;;16.42;;
57826;SDS011;43656;57.746;11.780;2024-01-30T08:44:17;32.22;;;14.82;;
57826;SDS011;43656;57.746;11.780;2024-01-30T08:49:29;35.40;;;16.45;;
57826;SDS011;43656;57.746;11.780;2024-01-30T08:51:54;34.08;;;16.02;;
57826;SDS011;43656;57.746;11.780;2024-01-30T08:54:20;36.15;;;15.85;;
57826;SDS011;43656;57.746;11.780;2024-01-30T08:56:45;35.33;;;14.63;;
57826;SDS011;43656;57.746;11.780;2024-01-30T08:59:10;42.70;;;15.18;;
57826;SDS011;43656;57.746;11.780;2024-01-30T09:01:36;49.80;;;16.23;;
57826;SDS011;43656;57.746;11.780;2024-01-30T09:04:01;59.95;;;17.33;;
57826;SDS011;43656;57.746;11.780;2024-01-30T09:06:27;55.88;;;16.65;;
57826;SDS011;43656;57.746;11.780;2024-01-30T09:08:54;59.20;;;17.80;;
57826;SDS011;43656;57.746;11.780;2024-01-30T09:11:19;63.65;;;17.90;;
57826;SDS011;43656;57.746;11.780;2024-01-30T09:13:45;68.07;;;19.10;;
57826;SDS011;43656;57.746;11.780;2024-01-30T09:16:10;75.72;;;19.60;;
57826;SDS011;43656;57.746;11.780;2024-01-30T09:18:38;74.65;;;19.55;;
57826;SDS011;43656;57.746;11.780;2024-01-30T09:21:03;65.30;;;19.75;;
57826;SDS011;43656;57.746;11.780;2024-01-30T09:23:28;69.78;;;20.65;;
57826;SDS011;43656;57.746;11.780;2024-01-30T09:25:54;81.85;;;21.63;;
57826;SDS011;43656;57.746;11.780;2024-01-30T09:28:20;77.05;;;21.75;;
57826;SDS011;43656;57.746;11.780;2024-01-30T09:30:46;83.25;;;21.90;;
57826;SDS011;43656;57.746;11.780;2024-01-30T09:33:11;90.30;;;22.88;;
57826;SDS011;43656;57.746;11.780;2024-01-30T09:35:39;84.35;;;21.55;;
57826;SDS011;43656;57.746;11.780;2024-01-30T09:38:04;83.43;;;21.25;;
57826;SDS011;43656;57.746;11.780;2024-01-30T09:40:30;91.65;;;22.10;;
57826;SDS011;43656;57.746;11.780;2024-01-30T09:42:56;102.13;;;22.13;;
57826;SDS011;43656;57.746;11.780;2024-01-30T09:45:25;88.97;;;21.40;;
57826;SDS011;43656;57.746;11.780;2024-01-30T09:47:51;104.45;;;22.85;;
57826;SDS011;43656;57.746;11.780;2024-01-30T09:50:18;105.55;;;21.88;;
57826;SDS011;43656;57.746;11.780;2024-01-30T09:52:44;109.10;;;22.17;;
57826;SDS011;43656;57.746;11.780;2024-01-30T09:55:09;96.65;;;21.00;;
57826;SDS011;43656;57.746;11.780;2024-01-30T09:57:35;94.82;;;20.15;;
57826;SDS011;43656;57.746;11.780;2024-01-30T10:00:02;101.00;;;20.85;;
57826;SDS011;43656;57.746;11.780;2024-01-30T10:02:28;110.40;;;20.15;;
57826;SDS011;43656;57.746;11.780;2024-01-30T10:04:55;93.78;;;19.77;;
57826;SDS011;43656;57.746;11.780;2024-01-30T10:07:20;100.63;;;19.77;;
57826;SDS011;43656;57.746;11.780;2024-01-30T10:09:46;80.38;;;18.02;;
57826;SDS011;43656;57.746;11.780;2024-01-30T10:12:11;78.53;;;17.45;;
57826;SDS011;43656;57.746;11.780;2024-01-30T10:14:38;68.28;;;15.50;;
57826;SDS011;43656;57.746;11.780;2024-01-30T10:17:04;71.38;;;16.65;;
57826;SDS011;43656;57.746;11.780;2024-01-30T10:19:30;95.30;;;19.00;;
57826;SDS011;43656;57.746;11.780;2024-01-30T10:21:56;95.28;;;19.02;;
57826;SDS011;43656;57.746;11.780;2024-01-30T10:24:25;104.70;;;19.00;;
57826;SDS011;43656;57.746;11.780;2024-01-30T10:26:54;77.22;;;16.50;;
57826;SDS011;43656;57.746;11.780;2024-01-30T10:29:20;69.65;;;15.35;;
57826;SDS011;43656;57.746;11.780;2024-01-30T10:31:45;72.43;;;16.02;;
57826;SDS011;43656;57.746;11.780;2024-01-30T10:34:10;102.15;;;16.85;;
57826;SDS011;43656;57.746;11.780;2024-01-30T10:36:39;97.78;;;18.10;;
57826;SDS011;43656;57.746;11.780;2024-01-30T10:39:08;79.88;;;17.38;;
57826;SDS011;43656;57.746;11.780;2024-01-30T10:41:35;79.30;;;15.52;;
57826;SDS011;43656;57.746;11.780;2024-01-30T10:44:08;68.95;;;15.15;;
57826;SDS011;43656;57.746;11.780;2024-01-30T10:46:35;70.03;;;14.93;;
57826;SDS011;43656;57.746;11.780;2024-01-30T10:49:03;67.50;;;14.90;;
57826;SDS011;43656;57.746;11.780;2024-01-30T10:51:30;91.00;;;16.83;;
57826;SDS011;43656;57.746;11.780;2024-01-30T10:53:56;78.05;;;16.70;;
57826;SDS011;43656;57.746;11.780;2024-01-30T10:56:22;83.90;;;15.63;;
57826;SDS011;43656;57.746;11.780;2024-01-30T10:58:50;71.47;;;16.25;;
57826;SDS011;43656;57.746;11.780;2024-01-30T11:01:17;73.45;;;15.68;;
57826;SDS011;43656;57.746;11.780;2024-01-30T11:03:44;75.75;;;15.88;;
57826;SDS011;43656;57.746;11.780;2024-01-30T11:06:11;76.72;;;15.70;;
57826;SDS011;43656;57.746;11.780;2024-01-30T11:08:39;69.40;;;15.63;;
57826;SDS011;43656;57.746;11.780;2024-01-30T11:11:07;81.60;;;17.02;;
57826;SDS011;43656;57.746;11.780;2024-01-30T11:13:34;96.95;;;16.85;;
57826;SDS011;43656;57.746;11.780;2024-01-30T11:16:03;89.80;;;16.63;;
57826;SDS011;43656;57.746;11.780;2024-01-30T11:18:30;95.25;;;16.75;;
57826;SDS011;43656;57.746;11.780;2024-01-30T11:20:57;87.50;;;17.52;;
57826;SDS011;43656;57.746;11.780;2024-01-30T11:23:29;77.32;;;17.70;;
57826;SDS011;43656;57.746;11.780;2024-01-30T11:25:58;85.85;;;17.58;;
57826;SDS011;43656;57.746;11.780;2024-01-30T11:28:23;86.80;;;17.13;;
57826;SDS011;43656;57.746;11.780;2024-01-30T11:30:49;95.30;;;18.17;;
57826;SDS011;43656;57.746;11.780;2024-01-30T11:33:27;79.82;;;17.00;;
57826;SDS011;43656;57.746;11.780;2024-01-30T11:35:58;78.22;;;16.50;;
57826;SDS011;43656;57.746;11.780;2024-01-30T11:38:32;64.40;;;16.40;;
57826;SDS011;43656;57.746;11.780;2024-01-30T11:40:57;79.53;;;16.30;;
57826;SDS011;43656;57.746;11.780;2024-01-30T11:43:23;78.93;;;16.58;;
57826;SDS011;43656;57.746;11.780;2024-01-30T11:45:48;84.47;;;17.98;;
57826;SDS011;43656;57.746;11.780;2024-01-30T11:48:14;70.05;;;16.52;;
57826;SDS011;43656;57.746;11.780;2024-01-30T11:50:39;71.13;;;16.20;;
57826;SDS011;43656;57.746;11.780;2024-01-30T11:53:05;82.75;;;17.30;;
57826;SDS011;43656;57.746;11.780;2024-01-30T11:55:31;78.82;;;16.73;;
57826;SDS011;43656;57.746;11.780;2024-01-30T11:57:57;64.28;;;15.82;;
57826;SDS011;43656;57.746;11.780;2024-01-30T12:00:23;86.18;;;17.98;;
57826;SDS011;43656;57.746;11.780;2024-01-30T12:02:49;77.03;;;15.63;;
57826;SDS011;43656;57.746;11.780;2024-01-30T12:05:15;81.63;;;15.82;;
57826;SDS011;43656;57.746;11.780;2024-01-30T12:07:43;71.03;;;14.30;;
57826;SDS011;43656;57.746;11.780;2024-01-30T12:10:09;74.20;;;14.88;;
57826;SDS011;43656;57.746;11.780;2024-01-30T12:12:36;70.95;;;14.63;;
57826;SDS011;43656;57.746;11.780;2024-01-30T12:15:02;65.45;;;13.35;;
57826;SDS011;43656;57.746;11.780;2024-01-30T12:17:29;72.85;;;13.40;;
57826;SDS011;43656;57.746;11.780;2024-01-30T12:22:44;72.43;;;13.82;;
57826;SDS011;43656;57.746;11.780;2024-01-30T12:25:11;55.03;;;12.35;;
57826;SDS011;43656;57.746;11.780;2024-01-30T12:27:38;74.78;;;13.70;;
57826;SDS011;43656;57.746;11.780;2024-01-30T12:30:13;62.88;;;12.60;;
57826;SDS011;43656;57.746;11.780;2024-01-30T12:32:40;60.72;;;12.40;;
57826;SDS011;43656;57.746;11.780;2024-01-30T12:35:08;66.95;;;13.73;;
57826;SDS011;43656;57.746;11.780;2024-01-30T12:37:36;70.60;;;13.15;;
57826;SDS011;43656;57.746;11.780;2024-01-30T12:40:02;62.22;;;14.13;;
57826;SDS011;43656;57.746;11.780;2024-01-30T12:42:29;61.05;;;12.90;;
57826;SDS011;43656;57.746;11.780;2024-01-30T12:44:56;58.25;;;13.35;;
57826;SDS011;43656;57.746;11.780;2024-01-30T12:47:23;56.97;;;12.93;;
57826;SDS011;43656;57.746;11.780;2024-01-30T12:49:48;57.22;;;13.75;;
57826;SDS011;43656;57.746;11.780;2024-01-30T12:52:15;61.10;;;14.05;;
57826;SDS011;43656;57.746;11.780;2024-01-30T12:54:41;67.35;;;14.55;;
57826;SDS011;43656;57.746;11.780;2024-01-30T12:57:07;67.47;;;15.48;;
57826;SDS011;43656;57.746;11.780;2024-01-30T12:59:32;60.58;;;14.32;;
57826;SDS011;43656;57.746;11.780;2024-01-30T13:01:59;62.53;;;15.93;;
57826;SDS011;43656;57.746;11.780;2024-01-30T13:04:25;58.28;;;16.40;;
57826;SDS011;43656;57.746;11.780;2024-01-30T13:06:52;64.57;;;16.90;;
57826;SDS011;43656;57.746;11.780;2024-01-30T13:09:17;71.63;;;17.52;;
57826;SDS011;43656;57.746;11.780;2024-01-30T13:11:42;71.28;;;20.08;;
57826;SDS011;43656;57.746;11.780;2024-01-30T13:14:09;71.45;;;20.08;;
57826;SDS011;43656;57.746;11.780;2024-01-30T13:16:34;74.40;;;20.38;;
57826;SDS011;43656;57.746;11.780;2024-01-30T13:19:00;70.80;;;20.55;;
57826;SDS011;43656;57.746;11.780;2024-01-30T13:21:27;83.20;;;20.95;;
57826;SDS011;43656;57.746;11.780;2024-01-30T13:23:52;77.70;;;21.35;;
57826;SDS011;43656;57.746;11.780;2024-01-30T13:26:19;87.63;;;22.70;;
57826;SDS011;43656;57.746;11.780;2024-01-30T13:28:45;73.15;;;22.13;;
57826;SDS011;43656;57.746;11.780;2024-01-30T13:31:10;68.68;;;21.20;;
57826;SDS011;43656;57.746;11.780;2024-01-30T13:33:35;82.57;;;23.20;;
57826;SDS011;43656;57.746;11.780;2024-01-30T13:36:01;75.18;;;22.95;;
57826;SDS011;43656;57.746;11.780;2024-01-30T13:38:26;76.68;;;22.67;;
57826;SDS011;43656;57.746;11.780;2024-01-30T13:40:51;82.50;;;23.75;;
57826;SDS011;43656;57.746;11.780;2024-01-30T13:43:17;76.68;;;24.02;;
57826;SDS011;43656;57.746;11.780;2024-01-30T13:45:43;82.78;;;24.48;;
57826;SDS011;43656;57.746;11.780;2024-01-30T13:48:09;71.65;;;23.08;;
57826;SDS011;43656;57.746;11.780;2024-01-30T13:50:34;65.57;;;22.85;;
57826;SDS011;43656;57.746;11.780;2024-01-30T13:53:00;60.50;;;20.65;;
57826;SDS011;43656;57.746;11.780;2024-01-30T13:55:25;59.60;;;21.33;;
57826;SDS011;43656;57.746;11.780;2024-01-30T13:57:50;60.92;;;23.13;;
57826;SDS011;43656;57.746;11.780;2024-01-30T14:00:16;62.80;;;23.85;;
57826;SDS011;43656;57.746;11.780;2024-01-30T14:02:42;62.67;;;24.00;;
57826;SDS011;43656;57.746;11.780;2024-01-30T14:05:07;64.40;;;24.48;;